El Macero, CA (95618)

5:39 AM PST on February 08, 2016 (GMT -0800)
APRSWXNET | | Change Station
CLOSE
Current Station
Personal Weather Station
Location: El Macero, CA
Elevation: 59 ft
Nearby Weather Stations

Elev 59 ft 38.54 °N, 121.69 °W | Updated 26 minutes ago

Fog
Fog
47 °F
Feels Like 47 °F
N
0
Wind Variable Wind from East
Gusts 0.0 mph

Today
High -- | Low -- °F
--% Chance of Precip.
Yesterday
High -- | Low -- °F
Precip. -- in
Pressure 30.26 in
Visibility 5.0 miles
Clouds Clear
Windchill 47 °F
Dew Point 45 °F
Humidity 94%
Rainfall in
Snow Depth Not available.
7:05 AM 5:36 PM
Waning Crescent, 0% visible
METAR KEDU 081315Z AUTO 09003KT 5SM CLR 07/05 A3026 RMK AO1
Pressure 30.26 in
Visibility 5.0 miles
Clouds Clear
Windchill 47 °F
Dew Point 45 °F
Humidity 94%
Rainfall in
Snow Depth Not available.
7:05 AM 5:36 PM
Waning Crescent, 0% visible
METAR KEDU 081315Z AUTO 09003KT 5SM CLR 07/05 A3026 RMK AO1

10-Day Weather Forecast

Almanac

Astronomy

Feb. 08, 2016 Rise Set
Actual Time
Civil Twilight
Nautical Twilight
Astronomical Twilight
Moon
Length of Visible Light
Length of Day
Tomorrow will be .
, % of the Moon is Illuminated

Today's Extremes

State Highs State Lows

Community

WunderPhotos

Upload Photos

1,891,434 photos uploaded!

WunderBlog® & News

Nearby

Air Quality

  Air Quality AQ Index Pollutant
Not available.

Snow Depth

Station Depth Elevation

Earthquake Activity

City Distance Mag. Time & Date
Minimum magnitude displayed is 2.5.

Coastal Water Temperatures

Place Temperature

Stations

Nearby Weather Stations

Station Location Temp. Windchill Dew Point Humidity Wind Precip. Elev Updated Type
                   

Watches & Warnings

There are currently no watches in effect.